sensor_id;sensor_type;location;lat;lon;timestamp;temperature;humidity
67974;DHT22;54756;51.140;6.952;2023-04-24T00:01:08;10.30;90.10
67974;DHT22;54756;51.140;6.952;2023-04-24T00:03:09;10.30;90.00
67974;DHT22;54756;51.140;6.952;2023-04-24T00:05:10;10.40;88.60
67974;DHT22;54756;51.140;6.952;2023-04-24T00:07:11;10.40;87.80
67974;DHT22;54756;51.140;6.952;2023-04-24T00:09:13;10.50;86.80
67974;DHT22;54756;51.140;6.952;2023-04-24T00:11:13;10.60;85.80
67974;DHT22;54756;51.140;6.952;2023-04-24T00:13:14;10.60;85.10
67974;DHT22;54756;51.140;6.952;2023-04-24T00:15:14;10.70;85.40
67974;DHT22;54756;51.140;6.952;2023-04-24T00:17:15;10.70;85.00
67974;DHT22;54756;51.140;6.952;2023-04-24T00:19:16;10.80;84.90
67974;DHT22;54756;51.140;6.952;2023-04-24T00:21:17;10.80;85.40
67974;DHT22;54756;51.140;6.952;2023-04-24T00:23:18;10.80;84.10
67974;DHT22;54756;51.140;6.952;2023-04-24T00:25:18;10.90;84.40
67974;DHT22;54756;51.140;6.952;2023-04-24T00:27:19;10.90;84.20
67974;DHT22;54756;51.140;6.952;2023-04-24T00:29:20;10.90;84.40
67974;DHT22;54756;51.140;6.952;2023-04-24T00:31:20;10.90;84.00
67974;DHT22;54756;51.140;6.952;2023-04-24T00:33:21;10.90;84.20
67974;DHT22;54756;51.140;6.952;2023-04-24T00:35:21;10.90;84.20
67974;DHT22;54756;51.140;6.952;2023-04-24T00:37:22;11.00;84.30
67974;DHT22;54756;51.140;6.952;2023-04-24T00:39:22;10.90;83.90
67974;DHT22;54756;51.140;6.952;2023-04-24T00:41:24;11.00;84.10
67974;DHT22;54756;51.140;6.952;2023-04-24T00:43:25;11.00;83.30
67974;DHT22;54756;51.140;6.952;2023-04-24T00:45:25;11.00;84.30
67974;DHT22;54756;51.140;6.952;2023-04-24T00:47:26;11.00;84.20
67974;DHT22;54756;51.140;6.952;2023-04-24T00:49:28;11.00;84.40
67974;DHT22;54756;51.140;6.952;2023-04-24T00:51:28;11.00;84.90
67974;DHT22;54756;51.140;6.952;2023-04-24T00:53:31;11.00;85.10
67974;DHT22;54756;51.140;6.952;2023-04-24T00:55:32;11.00;85.20
67974;DHT22;54756;51.140;6.952;2023-04-24T00:57:32;11.00;85.00
67974;DHT22;54756;51.140;6.952;2023-04-24T00:59:33;11.00;83.80
67974;DHT22;54756;51.140;6.952;2023-04-24T01:01:34;11.00;84.00
67974;DHT22;54756;51.140;6.952;2023-04-24T01:03:35;11.00;84.30
67974;DHT22;54756;51.140;6.952;2023-04-24T01:05:39;11.10;84.90
67974;DHT22;54756;51.140;6.952;2023-04-24T01:07:41;11.00;84.60
67974;DHT22;54756;51.140;6.952;2023-04-24T01:09:45;11.00;85.60
67974;DHT22;54756;51.140;6.952;2023-04-24T01:11:48;11.00;84.90
67974;DHT22;54756;51.140;6.952;2023-04-24T01:13:49;11.00;84.80
67974;DHT22;54756;51.140;6.952;2023-04-24T01:15:50;11.00;85.50
67974;DHT22;54756;51.140;6.952;2023-04-24T01:17:51;11.00;84.30
67974;DHT22;54756;51.140;6.952;2023-04-24T01:19:51;11.00;85.40
67974;DHT22;54756;51.140;6.952;2023-04-24T01:21:58;10.90;84.60
67974;DHT22;54756;51.140;6.952;2023-04-24T01:23:59;10.90;83.00
67974;DHT22;54756;51.140;6.952;2023-04-24T01:26:00;10.90;82.90
67974;DHT22;54756;51.140;6.952;2023-04-24T01:28:01;10.80;83.00
67974;DHT22;54756;51.140;6.952;2023-04-24T01:30:02;10.80;81.40
67974;DHT22;54756;51.140;6.952;2023-04-24T01:32:03;10.70;79.60
67974;DHT22;54756;51.140;6.952;2023-04-24T01:34:04;10.70;80.20
67974;DHT22;54756;51.140;6.952;2023-04-24T01:36:05;10.60;80.20
67974;DHT22;54756;51.140;6.952;2023-04-24T01:38:06;10.60;81.70
67974;DHT22;54756;51.140;6.952;2023-04-24T01:40:07;10.50;82.20
67974;DHT22;54756;51.140;6.952;2023-04-24T01:42:08;10.40;82.20
67974;DHT22;54756;51.140;6.952;2023-04-24T01:44:08;10.30;83.60
67974;DHT22;54756;51.140;6.952;2023-04-24T01:46:09;10.10;84.50
67974;DHT22;54756;51.140;6.952;2023-04-24T01:48:12;10.00;84.50
67974;DHT22;54756;51.140;6.952;2023-04-24T01:50:12;10.00;84.60
67974;DHT22;54756;51.140;6.952;2023-04-24T01:52:13;9.90;85.90
67974;DHT22;54756;51.140;6.952;2023-04-24T01:54:13;9.80;85.90
67974;DHT22;54756;51.140;6.952;2023-04-24T01:56:14;9.70;85.70
67974;DHT22;54756;51.140;6.952;2023-04-24T01:58:15;9.60;85.90
67974;DHT22;54756;51.140;6.952;2023-04-24T02:00:16;9.50;86.30
67974;DHT22;54756;51.140;6.952;2023-04-24T02:02:16;9.50;87.10
67974;DHT22;54756;51.140;6.952;2023-04-24T02:04:17;9.40;87.30
67974;DHT22;54756;51.140;6.952;2023-04-24T02:06:17;9.30;87.80
67974;DHT22;54756;51.140;6.952;2023-04-24T02:08:18;9.30;88.10
67974;DHT22;54756;51.140;6.952;2023-04-24T02:10:18;9.20;89.30
67974;DHT22;54756;51.140;6.952;2023-04-24T02:12:19;9.20;89.50
67974;DHT22;54756;51.140;6.952;2023-04-24T02:14:19;9.10;89.30
67974;DHT22;54756;51.140;6.952;2023-04-24T02:16:20;9.10;89.70
67974;DHT22;54756;51.140;6.952;2023-04-24T02:18:20;9.10;90.20
67974;DHT22;54756;51.140;6.952;2023-04-24T02:20:23;9.00;90.50
67974;DHT22;54756;51.140;6.952;2023-04-24T02:22:23;9.00;90.50
67974;DHT22;54756;51.140;6.952;2023-04-24T02:24:24;9.00;90.50
67974;DHT22;54756;51.140;6.952;2023-04-24T02:26:25;8.90;90.70
67974;DHT22;54756;51.140;6.952;2023-04-24T02:28:25;8.90;90.70
67974;DHT22;54756;51.140;6.952;2023-04-24T02:30:26;8.80;90.90
67974;DHT22;54756;51.140;6.952;2023-04-24T02:32:26;8.80;91.10
67974;DHT22;54756;51.140;6.952;2023-04-24T02:34:27;8.80;91.50
67974;DHT22;54756;51.140;6.952;2023-04-24T02:36:27;8.80;91.70
67974;DHT22;54756;51.140;6.952;2023-04-24T02:38:29;8.90;91.80
67974;DHT22;54756;51.140;6.952;2023-04-24T02:40:30;8.90;91.70
67974;DHT22;54756;51.140;6.952;2023-04-24T02:42:30;8.90;91.60
67974;DHT22;54756;51.140;6.952;2023-04-24T02:44:31;9.00;91.60
67974;DHT22;54756;51.140;6.952;2023-04-24T02:46:31;9.10;91.30
67974;DHT22;54756;51.140;6.952;2023-04-24T02:48:32;9.10;91.20
67974;DHT22;54756;51.140;6.952;2023-04-24T02:50:32;9.10;91.00
67974;DHT22;54756;51.140;6.952;2023-04-24T02:52:33;9.20;91.20
67974;DHT22;54756;51.140;6.952;2023-04-24T02:54:34;9.20;90.80
67974;DHT22;54756;51.140;6.952;2023-04-24T02:56:35;9.20;90.80
67974;DHT22;54756;51.140;6.952;2023-04-24T02:58:35;9.20;90.80
67974;DHT22;54756;51.140;6.952;2023-04-24T03:00:36;9.30;90.70
67974;DHT22;54756;51.140;6.952;2023-04-24T03:02:36;9.30;90.70
67974;DHT22;54756;51.140;6.952;2023-04-24T03:04:37;9.30;90.70
67974;DHT22;54756;51.140;6.952;2023-04-24T03:06:37;9.30;90.50
67974;DHT22;54756;51.140;6.952;2023-04-24T03:08:39;9.30;90.60
67974;DHT22;54756;51.140;6.952;2023-04-24T03:10:39;9.30;90.60
67974;DHT22;54756;51.140;6.952;2023-04-24T03:12:40;9.30;90.50
67974;DHT22;54756;51.140;6.952;2023-04-24T03:14:40;9.30;90.30
67974;DHT22;54756;51.140;6.952;2023-04-24T03:16:41;9.40;90.40
67974;DHT22;54756;51.140;6.952;2023-04-24T03:18:41;9.40;90.50
67974;DHT22;54756;51.140;6.952;2023-04-24T03:20:43;9.40;90.50
67974;DHT22;54756;51.140;6.952;2023-04-24T03:22:45;9.40;90.10
67974;DHT22;54756;51.140;6.952;2023-04-24T03:24:46;9.40;90.20
67974;DHT22;54756;51.140;6.952;2023-04-24T03:26:46;9.40;90.40
67974;DHT22;54756;51.140;6.952;2023-04-24T03:28:47;9.40;90.20
67974;DHT22;54756;51.140;6.952;2023-04-24T03:30:47;9.40;90.50
67974;DHT22;54756;51.140;6.952;2023-04-24T03:32:48;9.40;90.20
67974;DHT22;54756;51.140;6.952;2023-04-24T03:34:49;9.40;90.10
67974;DHT22;54756;51.140;6.952;2023-04-24T03:36:50;9.40;89.40
67974;DHT22;54756;51.140;6.952;2023-04-24T03:38:50;9.40;89.20
67974;DHT22;54756;51.140;6.952;2023-04-24T03:40:51;9.40;88.30
67974;DHT22;54756;51.140;6.952;2023-04-24T03:42:51;9.40;88.70
67974;DHT22;54756;51.140;6.952;2023-04-24T03:44:52;9.40;88.50
67974;DHT22;54756;51.140;6.952;2023-04-24T03:46:52;9.40;89.00
67974;DHT22;54756;51.140;6.952;2023-04-24T03:48:53;9.40;88.60
67974;DHT22;54756;51.140;6.952;2023-04-24T03:50:54;9.40;89.10
67974;DHT22;54756;51.140;6.952;2023-04-24T03:52:54;9.40;89.70
67974;DHT22;54756;51.140;6.952;2023-04-24T03:54:55;9.40;89.20
67974;DHT22;54756;51.140;6.952;2023-04-24T03:56:56;9.40;89.00
67974;DHT22;54756;51.140;6.952;2023-04-24T03:58:56;9.40;88.80
67974;DHT22;54756;51.140;6.952;2023-04-24T04:00:57;9.40;88.60
67974;DHT22;54756;51.140;6.952;2023-04-24T04:02:58;9.40;88.30
67974;DHT22;54756;51.140;6.952;2023-04-24T04:04:59;9.40;88.30
67974;DHT22;54756;51.140;6.952;2023-04-24T04:06:59;9.40;88.30
67974;DHT22;54756;51.140;6.952;2023-04-24T04:09:03;9.40;88.00
67974;DHT22;54756;51.140;6.952;2023-04-24T04:11:03;9.40;88.00
67974;DHT22;54756;51.140;6.952;2023-04-24T04:13:04;9.40;87.50
67974;DHT22;54756;51.140;6.952;2023-04-24T04:15:06;9.40;87.60
67974;DHT22;54756;51.140;6.952;2023-04-24T04:17:07;9.40;87.00
67974;DHT22;54756;51.140;6.952;2023-04-24T04:19:07;9.40;87.90
67974;DHT22;54756;51.140;6.952;2023-04-24T04:21:08;9.40;87.60
67974;DHT22;54756;51.140;6.952;2023-04-24T04:23:09;9.40;87.90
67974;DHT22;54756;51.140;6.952;2023-04-24T04:25:10;9.30;90.20
67974;DHT22;54756;51.140;6.952;2023-04-24T04:27:11;9.20;90.50
67974;DHT22;54756;51.140;6.952;2023-04-24T04:29:13;9.00;91.00
67974;DHT22;54756;51.140;6.952;2023-04-24T04:31:14;8.80;91.50
67974;DHT22;54756;51.140;6.952;2023-04-24T04:33:14;8.70;92.00
67974;DHT22;54756;51.140;6.952;2023-04-24T04:35:15;8.60;92.40
67974;DHT22;54756;51.140;6.952;2023-04-24T04:37:15;8.60;92.70
67974;DHT22;54756;51.140;6.952;2023-04-24T04:39:16;8.60;92.80
67974;DHT22;54756;51.140;6.952;2023-04-24T04:41:18;8.60;92.80
67974;DHT22;54756;51.140;6.952;2023-04-24T04:43:20;8.60;93.40
67974;DHT22;54756;51.140;6.952;2023-04-24T04:45:21;8.60;93.00
67974;DHT22;54756;51.140;6.952;2023-04-24T04:47:21;8.70;93.00
67974;DHT22;54756;51.140;6.952;2023-04-24T04:49:25;8.70;92.80
67974;DHT22;54756;51.140;6.952;2023-04-24T04:51:29;8.80;92.80
67974;DHT22;54756;51.140;6.952;2023-04-24T04:53:29;8.80;92.50
67974;DHT22;54756;51.140;6.952;2023-04-24T04:55:30;8.90;92.60
67974;DHT22;54756;51.140;6.952;2023-04-24T04:57:30;8.90;92.70
67974;DHT22;54756;51.140;6.952;2023-04-24T04:59:31;9.00;92.60
67974;DHT22;54756;51.140;6.952;2023-04-24T05:01:32;9.00;92.30
67974;DHT22;54756;51.140;6.952;2023-04-24T05:03:32;9.00;92.00
67974;DHT22;54756;51.140;6.952;2023-04-24T05:05:33;9.10;91.80
67974;DHT22;54756;51.140;6.952;2023-04-24T05:07:33;9.10;91.70
67974;DHT22;54756;51.140;6.952;2023-04-24T05:09:34;9.10;91.40
67974;DHT22;54756;51.140;6.952;2023-04-24T05:11:34;9.20;91.10
67974;DHT22;54756;51.140;6.952;2023-04-24T05:13:35;9.20;91.00
67974;DHT22;54756;51.140;6.952;2023-04-24T05:15:35;9.30;90.40
67974;DHT22;54756;51.140;6.952;2023-04-24T05:17:36;9.30;90.20
67974;DHT22;54756;51.140;6.952;2023-04-24T05:19:37;9.30;89.90
67974;DHT22;54756;51.140;6.952;2023-04-24T05:21:38;9.30;89.40
67974;DHT22;54756;51.140;6.952;2023-04-24T05:23:39;9.40;88.90
67974;DHT22;54756;51.140;6.952;2023-04-24T05:25:40;9.40;88.30
67974;DHT22;54756;51.140;6.952;2023-04-24T05:27:41;9.40;88.20
67974;DHT22;54756;51.140;6.952;2023-04-24T05:29:42;9.40;88.20
67974;DHT22;54756;51.140;6.952;2023-04-24T05:31:43;9.40;88.00
67974;DHT22;54756;51.140;6.952;2023-04-24T05:33:44;9.40;88.50
67974;DHT22;54756;51.140;6.952;2023-04-24T05:35:44;9.40;88.90
67974;DHT22;54756;51.140;6.952;2023-04-24T05:37:46;9.40;89.90
67974;DHT22;54756;51.140;6.952;2023-04-24T05:39:47;9.40;90.20
67974;DHT22;54756;51.140;6.952;2023-04-24T05:41:48;9.30;91.60
67974;DHT22;54756;51.140;6.952;2023-04-24T05:43:48;9.10;92.50
67974;DHT22;54756;51.140;6.952;2023-04-24T05:45:49;8.90;93.70
67974;DHT22;54756;51.140;6.952;2023-04-24T05:47:50;8.70;94.50
67974;DHT22;54756;51.140;6.952;2023-04-24T05:49:52;8.60;95.50
67974;DHT22;54756;51.140;6.952;2023-04-24T05:51:53;8.50;95.60
67974;DHT22;54756;51.140;6.952;2023-04-24T05:53:54;8.30;96.40
67974;DHT22;54756;51.140;6.952;2023-04-24T05:55:55;8.30;96.90
67974;DHT22;54756;51.140;6.952;2023-04-24T05:57:55;8.20;97.20
67974;DHT22;54756;51.140;6.952;2023-04-24T05:59:56;8.20;97.70
67974;DHT22;54756;51.140;6.952;2023-04-24T06:01:57;8.20;97.80
67974;DHT22;54756;51.140;6.952;2023-04-24T06:03:57;8.10;97.80
67974;DHT22;54756;51.140;6.952;2023-04-24T06:05:58;8.10;98.00
67974;DHT22;54756;51.140;6.952;2023-04-24T06:07:58;8.10;98.30
67974;DHT22;54756;51.140;6.952;2023-04-24T06:09:59;8.10;98.00
67974;DHT22;54756;51.140;6.952;2023-04-24T06:12:00;8.10;97.90
67974;DHT22;54756;51.140;6.952;2023-04-24T06:14:00;8.10;98.00
67974;DHT22;54756;51.140;6.952;2023-04-24T06:16:01;8.10;97.90
67974;DHT22;54756;51.140;6.952;2023-04-24T06:18:02;8.20;97.70
67974;DHT22;54756;51.140;6.952;2023-04-24T06:20:03;8.20;97.70
67974;DHT22;54756;51.140;6.952;2023-04-24T06:22:05;8.20;97.40
67974;DHT22;54756;51.140;6.952;2023-04-24T06:24:06;8.30;96.90
67974;DHT22;54756;51.140;6.952;2023-04-24T06:26:07;8.30;96.70
67974;DHT22;54756;51.140;6.952;2023-04-24T06:28:07;8.40;96.40
67974;DHT22;54756;51.140;6.952;2023-04-24T06:30:08;8.50;96.00
67974;DHT22;54756;51.140;6.952;2023-04-24T06:32:09;8.50;95.70
67974;DHT22;54756;51.140;6.952;2023-04-24T06:34:09;8.50;96.00
67974;DHT22;54756;51.140;6.952;2023-04-24T06:36:12;8.50;96.10
67974;DHT22;54756;51.140;6.952;2023-04-24T06:38:12;8.40;96.50
67974;DHT22;54756;51.140;6.952;2023-04-24T06:40:13;8.30;97.10
67974;DHT22;54756;51.140;6.952;2023-04-24T06:42:14;8.20;97.90
67974;DHT22;54756;51.140;6.952;2023-04-24T06:44:14;8.20;98.20
67974;DHT22;54756;51.140;6.952;2023-04-24T06:46:15;8.10;98.30
67974;DHT22;54756;51.140;6.952;2023-04-24T06:48:16;8.00;98.70
67974;DHT22;54756;51.140;6.952;2023-04-24T06:50:17;8.00;99.00
67974;DHT22;54756;51.140;6.952;2023-04-24T06:52:18;8.00;99.40
67974;DHT22;54756;51.140;6.952;2023-04-24T06:54:18;8.10;99.60
67974;DHT22;54756;51.140;6.952;2023-04-24T06:56:19;8.10;99.80
67974;DHT22;54756;51.140;6.952;2023-04-24T06:58:20;8.00;99.90
67974;DHT22;54756;51.140;6.952;2023-04-24T07:00:21;8.00;99.90
67974;DHT22;54756;51.140;6.952;2023-04-24T07:02:25;8.00;99.90
67974;DHT22;54756;51.140;6.952;2023-04-24T07:04:26;8.00;99.90
67974;DHT22;54756;51.140;6.952;2023-04-24T07:06:26;8.00;99.90
67974;DHT22;54756;51.140;6.952;2023-04-24T07:08:27;8.00;99.90
67974;DHT22;54756;51.140;6.952;2023-04-24T07:10:30;8.00;99.90
67974;DHT22;54756;51.140;6.952;2023-04-24T07:12:31;8.00;99.90
67974;DHT22;54756;51.140;6.952;2023-04-24T07:14:32;8.00;99.90
67974;DHT22;54756;51.140;6.952;2023-04-24T07:16:33;8.00;99.90
67974;DHT22;54756;51.140;6.952;2023-04-24T07:18:33;8.00;99.90
67974;DHT22;54756;51.140;6.952;2023-04-24T07:20:34;8.00;99.90
67974;DHT22;54756;51.140;6.952;2023-04-24T07:22:34;8.00;99.90
67974;DHT22;54756;51.140;6.952;2023-04-24T07:24:35;8.00;99.90
67974;DHT22;54756;51.140;6.952;2023-04-24T07:26:36;8.00;99.90
67974;DHT22;54756;51.140;6.952;2023-04-24T07:28:37;7.90;99.90
67974;DHT22;54756;51.140;6.952;2023-04-24T07:30:37;7.90;99.90
67974;DHT22;54756;51.140;6.952;2023-04-24T07:32:38;7.90;99.90
67974;DHT22;54756;51.140;6.952;2023-04-24T07:34:39;8.00;99.90
67974;DHT22;54756;51.140;6.952;2023-04-24T07:36:41;8.00;99.90
67974;DHT22;54756;51.140;6.952;2023-04-24T07:38:42;8.00;99.90
67974;DHT22;54756;51.140;6.952;2023-04-24T07:40:43;8.00;99.90
67974;DHT22;54756;51.140;6.952;2023-04-24T07:42:43;8.00;99.90
67974;DHT22;54756;51.140;6.952;2023-04-24T07:44:44;8.00;99.90
67974;DHT22;54756;51.140;6.952;2023-04-24T07:46:46;8.00;99.90
67974;DHT22;54756;51.140;6.952;2023-04-24T07:48:47;8.00;99.90
67974;DHT22;54756;51.140;6.952;2023-04-24T07:50:48;8.00;99.90
67974;DHT22;54756;51.140;6.952;2023-04-24T07:52:48;7.90;99.90
67974;DHT22;54756;51.140;6.952;2023-04-24T07:54:49;7.90;99.90
67974;DHT22;54756;51.140;6.952;2023-04-24T07:56:50;7.90;99.90
67974;DHT22;54756;51.140;6.952;2023-04-24T07:58:50;7.80;99.90
67974;DHT22;54756;51.140;6.952;2023-04-24T08:00:51;7.70;99.90
67974;DHT22;54756;51.140;6.952;2023-04-24T08:02:51;7.60;99.90
67974;DHT22;54756;51.140;6.952;2023-04-24T08:04:52;7.40;99.90
67974;DHT22;54756;51.140;6.952;2023-04-24T08:06:55;7.30;99.90
67974;DHT22;54756;51.140;6.952;2023-04-24T08:08:57;7.20;99.90
67974;DHT22;54756;51.140;6.952;2023-04-24T08:10:57;7.10;99.90
67974;DHT22;54756;51.140;6.952;2023-04-24T08:12:58;7.10;99.90
67974;DHT22;54756;51.140;6.952;2023-04-24T08:14:58;7.00;99.90
67974;DHT22;54756;51.140;6.952;2023-04-24T08:16:59;6.90;99.90
67974;DHT22;54756;51.140;6.952;2023-04-24T08:19:00;6.90;99.90
67974;DHT22;54756;51.140;6.952;2023-04-24T08:21:01;6.90;99.90
67974;DHT22;54756;51.140;6.952;2023-04-24T08:23:02;6.90;99.90
67974;DHT22;54756;51.140;6.952;2023-04-24T08:25:02;6.90;99.90
67974;DHT22;54756;51.140;6.952;2023-04-24T08:27:03;6.90;99.90
67974;DHT22;54756;51.140;6.952;2023-04-24T08:29:04;7.00;99.90
67974;DHT22;54756;51.140;6.952;2023-04-24T08:31:06;7.00;99.90
67974;DHT22;54756;51.140;6.952;2023-04-24T08:33:06;7.00;99.90
67974;DHT22;54756;51.140;6.952;2023-04-24T08:35:08;7.00;99.90
67974;DHT22;54756;51.140;6.952;2023-04-24T08:37:09;7.10;99.90
67974;DHT22;54756;51.140;6.952;2023-04-24T08:39:10;7.10;99.90
67974;DHT22;54756;51.140;6.952;2023-04-24T08:41:11;7.20;99.90
67974;DHT22;54756;51.140;6.952;2023-04-24T08:43:12;7.20;99.90
67974;DHT22;54756;51.140;6.952;2023-04-24T08:45:14;7.20;99.90
67974;DHT22;54756;51.140;6.952;2023-04-24T08:47:15;7.30;99.90
67974;DHT22;54756;51.140;6.952;2023-04-24T08:49:16;7.30;99.90
67974;DHT22;54756;51.140;6.952;2023-04-24T08:51:16;7.30;99.90
67974;DHT22;54756;51.140;6.952;2023-04-24T08:53:18;7.40;99.90
67974;DHT22;54756;51.140;6.952;2023-04-24T08:55:20;7.40;99.90
67974;DHT22;54756;51.140;6.952;2023-04-24T08:57:21;7.40;99.90
67974;DHT22;54756;51.140;6.952;2023-04-24T08:59:22;7.50;99.90
67974;DHT22;54756;51.140;6.952;2023-04-24T09:01:25;7.60;99.90
67974;DHT22;54756;51.140;6.952;2023-04-24T09:03:27;7.60;99.90
67974;DHT22;54756;51.140;6.952;2023-04-24T09:05:28;7.60;99.90
67974;DHT22;54756;51.140;6.952;2023-04-24T09:07:30;7.60;99.90
67974;DHT22;54756;51.140;6.952;2023-04-24T09:09:33;7.60;99.90
67974;DHT22;54756;51.140;6.952;2023-04-24T09:11:34;7.70;99.90
67974;DHT22;54756;51.140;6.952;2023-04-24T09:13:34;7.70;99.90
67974;DHT22;54756;51.140;6.952;2023-04-24T09:15:36;7.80;99.90
67974;DHT22;54756;51.140;6.952;2023-04-24T09:17:37;7.80;99.90
67974;DHT22;54756;51.140;6.952;2023-04-24T09:19:38;7.90;99.90
67974;DHT22;54756;51.140;6.952;2023-04-24T09:21:38;7.90;99.90
67974;DHT22;54756;51.140;6.952;2023-04-24T09:23:39;7.80;99.90
67974;DHT22;54756;51.140;6.952;2023-04-24T09:25:40;7.80;99.90
67974;DHT22;54756;51.140;6.952;2023-04-24T09:27:42;7.80;99.90
67974;DHT22;54756;51.140;6.952;2023-04-24T09:29:56;7.80;99.90
67974;DHT22;54756;51.140;6.952;2023-04-24T09:31:57;7.70;99.90
67974;DHT22;54756;51.140;6.952;2023-04-24T09:34:04;7.70;99.90
67974;DHT22;54756;51.140;6.952;2023-04-24T09:36:08;7.70;99.90
67974;DHT22;54756;51.140;6.952;2023-04-24T09:38:09;7.70;99.90
67974;DHT22;54756;51.140;6.952;2023-04-24T09:40:16;7.80;99.90
67974;DHT22;54756;51.140;6.952;2023-04-24T09:42:17;7.80;99.90
67974;DHT22;54756;51.140;6.952;2023-04-24T09:44:20;7.90;99.90
67974;DHT22;54756;51.140;6.952;2023-04-24T09:46:30;7.90;99.90
67974;DHT22;54756;51.140;6.952;2023-04-24T09:48:35;8.00;99.90
67974;DHT22;54756;51.140;6.952;2023-04-24T09:50:36;8.00;99.90
67974;DHT22;54756;51.140;6.952;2023-04-24T09:52:43;8.10;99.90
67974;DHT22;54756;51.140;6.952;2023-04-24T09:54:52;8.20;99.90
67974;DHT22;54756;51.140;6.952;2023-04-24T09:56:54;8.10;99.90
67974;DHT22;54756;51.140;6.952;2023-04-24T09:58:55;8.10;99.90
67974;DHT22;54756;51.140;6.952;2023-04-24T10:01:04;8.20;99.90
67974;DHT22;54756;51.140;6.952;2023-04-24T10:03:05;8.30;99.90
67974;DHT22;54756;51.140;6.952;2023-04-24T10:05:06;8.30;99.90
67974;DHT22;54756;51.140;6.952;2023-04-24T10:07:08;8.30;99.90
67974;DHT22;54756;51.140;6.952;2023-04-24T10:09:10;8.40;99.90
67974;DHT22;54756;51.140;6.952;2023-04-24T10:11:12;8.50;99.90
67974;DHT22;54756;51.140;6.952;2023-04-24T10:13:14;8.70;99.90
67974;DHT22;54756;51.140;6.952;2023-04-24T10:15:15;8.90;99.90
67974;DHT22;54756;51.140;6.952;2023-04-24T10:17:21;9.00;99.90
67974;DHT22;54756;51.140;6.952;2023-04-24T10:19:25;9.10;99.90
67974;DHT22;54756;51.140;6.952;2023-04-24T10:21:26;9.20;99.90
67974;DHT22;54756;51.140;6.952;2023-04-24T10:23:27;9.30;99.90
67974;DHT22;54756;51.140;6.952;2023-04-24T10:25:30;9.40;99.90
67974;DHT22;54756;51.140;6.952;2023-04-24T10:27:32;9.40;99.90
67974;DHT22;54756;51.140;6.952;2023-04-24T10:29:35;9.50;99.90
67974;DHT22;54756;51.140;6.952;2023-04-24T10:31:36;9.80;99.90
67974;DHT22;54756;51.140;6.952;2023-04-24T10:33:40;9.90;99.90
67974;DHT22;54756;51.140;6.952;2023-04-24T10:35:45;10.10;99.90
67974;DHT22;54756;51.140;6.952;2023-04-24T10:39:57;10.20;99.00
67974;DHT22;54756;51.140;6.952;2023-04-24T10:41:57;10.20;99.20
67974;DHT22;54756;51.140;6.952;2023-04-24T10:44:06;10.10;98.50
67974;DHT22;54756;51.140;6.952;2023-04-24T10:46:07;10.00;98.90
67974;DHT22;54756;51.140;6.952;2023-04-24T10:48:08;9.80;99.10
67974;DHT22;54756;51.140;6.952;2023-04-24T10:50:13;9.70;99.70
67974;DHT22;54756;51.140;6.952;2023-04-24T10:52:14;9.60;99.90
67974;DHT22;54756;51.140;6.952;2023-04-24T10:55:03;9.50;99.90
67974;DHT22;54756;51.140;6.952;2023-04-24T10:57:33;9.40;99.90
67974;DHT22;54756;51.140;6.952;2023-04-24T10:59:35;9.60;99.80
67974;DHT22;54756;51.140;6.952;2023-04-24T11:01:38;9.80;99.90
67974;DHT22;54756;51.140;6.952;2023-04-24T11:03:38;9.90;99.60
67974;DHT22;54756;51.140;6.952;2023-04-24T11:05:59;10.10;99.00
67974;DHT22;54756;51.140;6.952;2023-04-24T11:08:15;10.20;98.40
67974;DHT22;54756;51.140;6.952;2023-04-24T11:10:26;10.20;98.40
67974;DHT22;54756;51.140;6.952;2023-04-24T11:12:27;10.00;97.50
67974;DHT22;54756;51.140;6.952;2023-04-24T11:14:27;9.80;97.80
67974;DHT22;54756;51.140;6.952;2023-04-24T11:18:44;9.70;98.60
67974;DHT22;54756;51.140;6.952;2023-04-24T11:20:46;9.80;98.80
67974;DHT22;54756;51.140;6.952;2023-04-24T11:22:47;9.90;98.90
67974;DHT22;54756;51.140;6.952;2023-04-24T11:26:48;10.40;98.80
67974;DHT22;54756;51.140;6.952;2023-04-24T11:28:50;10.70;97.30
67974;DHT22;54756;51.140;6.952;2023-04-24T11:30:50;11.20;95.40
67974;DHT22;54756;51.140;6.952;2023-04-24T11:32:53;11.50;94.80
67974;DHT22;54756;51.140;6.952;2023-04-24T11:35:17;11.80;94.70
67974;DHT22;54756;51.140;6.952;2023-04-24T11:37:18;11.90;94.20
67974;DHT22;54756;51.140;6.952;2023-04-24T11:39:18;12.00;92.70
67974;DHT22;54756;51.140;6.952;2023-04-24T11:41:20;12.40;94.00
67974;DHT22;54756;51.140;6.952;2023-04-24T11:43:21;12.90;92.00
67974;DHT22;54756;51.140;6.952;2023-04-24T11:45:24;13.30;89.00
67974;DHT22;54756;51.140;6.952;2023-04-24T11:47:28;13.40;87.40
67974;DHT22;54756;51.140;6.952;2023-04-24T11:49:30;13.30;86.50
67974;DHT22;54756;51.140;6.952;2023-04-24T11:51:30;13.10;83.80
67974;DHT22;54756;51.140;6.952;2023-04-24T11:53:31;12.90;86.60
67974;DHT22;54756;51.140;6.952;2023-04-24T11:55:32;12.70;85.00
67974;DHT22;54756;51.140;6.952;2023-04-24T11:57:33;12.70;84.20
67974;DHT22;54756;51.140;6.952;2023-04-24T11:59:36;12.60;85.50
67974;DHT22;54756;51.140;6.952;2023-04-24T12:01:48;12.60;85.30
67974;DHT22;54756;51.140;6.952;2023-04-24T12:03:50;12.50;89.10
67974;DHT22;54756;51.140;6.952;2023-04-24T12:05:51;12.40;86.80
67974;DHT22;54756;51.140;6.952;2023-04-24T12:07:52;12.40;88.40
67974;DHT22;54756;51.140;6.952;2023-04-24T12:09:58;12.30;87.70
67974;DHT22;54756;51.140;6.952;2023-04-24T12:11:59;12.30;90.20
67974;DHT22;54756;51.140;6.952;2023-04-24T12:14:10;12.40;81.60
67974;DHT22;54756;51.140;6.952;2023-04-24T12:16:11;12.50;83.20
67974;DHT22;54756;51.140;6.952;2023-04-24T12:18:14;12.70;80.00
67974;DHT22;54756;51.140;6.952;2023-04-24T12:20:17;12.70;77.70
67974;DHT22;54756;51.140;6.952;2023-04-24T12:22:23;12.60;74.20
67974;DHT22;54756;51.140;6.952;2023-04-24T12:24:24;12.60;75.80
67974;DHT22;54756;51.140;6.952;2023-04-24T12:26:24;12.60;70.40
67974;DHT22;54756;51.140;6.952;2023-04-24T12:28:35;12.70;68.60
67974;DHT22;54756;51.140;6.952;2023-04-24T12:30:48;12.80;70.00
67974;DHT22;54756;51.140;6.952;2023-04-24T12:32:49;12.90;72.40
67974;DHT22;54756;51.140;6.952;2023-04-24T12:34:55;13.00;71.40
67974;DHT22;54756;51.140;6.952;2023-04-24T12:36:56;13.50;71.00
67974;DHT22;54756;51.140;6.952;2023-04-24T12:38:56;14.10;69.60
67974;DHT22;54756;51.140;6.952;2023-04-24T12:41:05;14.40;61.70
67974;DHT22;54756;51.140;6.952;2023-04-24T12:43:19;14.30;59.50
67974;DHT22;54756;51.140;6.952;2023-04-24T12:45:20;14.10;59.20
67974;DHT22;54756;51.140;6.952;2023-04-24T12:47:24;13.80;61.10
67974;DHT22;54756;51.140;6.952;2023-04-24T12:49:24;13.50;54.60
67974;DHT22;54756;51.140;6.952;2023-04-24T12:51:25;13.10;60.70
67974;DHT22;54756;51.140;6.952;2023-04-24T12:53:25;12.90;63.70
67974;DHT22;54756;51.140;6.952;2023-04-24T12:55:26;13.00;63.90
67974;DHT22;54756;51.140;6.952;2023-04-24T12:57:31;13.10;66.30
67974;DHT22;54756;51.140;6.952;2023-04-24T12:59:31;13.50;68.30
67974;DHT22;54756;51.140;6.952;2023-04-24T13:01:32;14.00;69.10
67974;DHT22;54756;51.140;6.952;2023-04-24T13:03:32;15.00;56.50
67974;DHT22;54756;51.140;6.952;2023-04-24T13:05:33;15.30;42.90